sensor_id;sensor_type;location;lat;lon;timestamp;temperature;humidity
40808;DHT22;26523;52.504;13.498;2022-10-16T00:01:19;13.20;99.90
40808;DHT22;26523;52.504;13.498;2022-10-16T00:03:46;13.20;99.90
40808;DHT22;26523;52.504;13.498;2022-10-16T00:06:13;13.20;99.90
40808;DHT22;26523;52.504;13.498;2022-10-16T00:08:39;13.30;99.90
40808;DHT22;26523;52.504;13.498;2022-10-16T00:11:08;13.20;99.90
40808;DHT22;26523;52.504;13.498;2022-10-16T00:13:35;13.20;99.90
40808;DHT22;26523;52.504;13.498;2022-10-16T00:16:01;13.20;99.90
40808;DHT22;26523;52.504;13.498;2022-10-16T00:18:28;13.20;99.90
40808;DHT22;26523;52.504;13.498;2022-10-16T00:20:54;13.30;99.90
40808;DHT22;26523;52.504;13.498;2022-10-16T00:23:20;13.30;99.90
40808;DHT22;26523;52.504;13.498;2022-10-16T00:25:58;13.20;99.90
40808;DHT22;26523;52.504;13.498;2022-10-16T00:28:24;13.20;99.90
40808;DHT22;26523;52.504;13.498;2022-10-16T00:30:49;13.30;99.90
40808;DHT22;26523;52.504;13.498;2022-10-16T00:33:15;13.40;99.90
40808;DHT22;26523;52.504;13.498;2022-10-16T00:35:41;13.40;99.90
40808;DHT22;26523;52.504;13.498;2022-10-16T00:38:06;13.50;99.90
40808;DHT22;26523;52.504;13.498;2022-10-16T00:40:32;13.50;99.90
40808;DHT22;26523;52.504;13.498;2022-10-16T00:42:57;13.60;99.90
40808;DHT22;26523;52.504;13.498;2022-10-16T00:45:23;13.60;99.90
40808;DHT22;26523;52.504;13.498;2022-10-16T00:47:52;13.60;99.90
40808;DHT22;26523;52.504;13.498;2022-10-16T00:50:26;13.60;99.90
40808;DHT22;26523;52.504;13.498;2022-10-16T00:52:54;13.70;99.90
40808;DHT22;26523;52.504;13.498;2022-10-16T00:55:20;13.70;99.90
40808;DHT22;26523;52.504;13.498;2022-10-16T00:57:48;13.80;99.90
40808;DHT22;26523;52.504;13.498;2022-10-16T01:00:21;13.80;99.90
40808;DHT22;26523;52.504;13.498;2022-10-16T01:05:24;13.90;99.90
40808;DHT22;26523;52.504;13.498;2022-10-16T01:08:07;13.90;99.90
40808;DHT22;26523;52.504;13.498;2022-10-16T01:11:10;13.90;99.90
40808;DHT22;26523;52.504;13.498;2022-10-16T01:13:42;13.90;99.90
40808;DHT22;26523;52.504;13.498;2022-10-16T01:16:13;13.90;99.90
40808;DHT22;26523;52.504;13.498;2022-10-16T01:18:47;13.90;99.90
40808;DHT22;26523;52.504;13.498;2022-10-16T01:21:26;13.80;99.90
40808;DHT22;26523;52.504;13.498;2022-10-16T01:29:28;13.90;99.90
40808;DHT22;26523;52.504;13.498;2022-10-16T01:32:00;13.80;99.90
40808;DHT22;26523;52.504;13.498;2022-10-16T01:34:34;13.70;99.90
40808;DHT22;26523;52.504;13.498;2022-10-16T01:37:09;13.70;99.90
40808;DHT22;26523;52.504;13.498;2022-10-16T01:39:39;13.60;99.90
40808;DHT22;26523;52.504;13.498;2022-10-16T01:42:12;13.60;99.90
40808;DHT22;26523;52.504;13.498;2022-10-16T01:44:39;13.60;99.90
40808;DHT22;26523;52.504;13.498;2022-10-16T01:47:09;13.60;99.90
40808;DHT22;26523;52.504;13.498;2022-10-16T01:49:38;13.60;99.90
40808;DHT22;26523;52.504;13.498;2022-10-16T01:52:07;13.60;99.90
40808;DHT22;26523;52.504;13.498;2022-10-16T01:54:36;13.60;99.90
40808;DHT22;26523;52.504;13.498;2022-10-16T01:57:04;13.60;99.90
40808;DHT22;26523;52.504;13.498;2022-10-16T01:59:32;13.60;99.90
40808;DHT22;26523;52.504;13.498;2022-10-16T02:02:03;13.60;99.90
40808;DHT22;26523;52.504;13.498;2022-10-16T02:04:34;13.60;99.90
40808;DHT22;26523;52.504;13.498;2022-10-16T02:07:01;13.60;99.90
40808;DHT22;26523;52.504;13.498;2022-10-16T02:09:27;13.60;99.90
40808;DHT22;26523;52.504;13.498;2022-10-16T02:11:55;13.70;99.90
40808;DHT22;26523;52.504;13.498;2022-10-16T02:14:23;13.80;99.90
40808;DHT22;26523;52.504;13.498;2022-10-16T02:16:50;13.80;99.90
40808;DHT22;26523;52.504;13.498;2022-10-16T02:19:17;13.80;99.90
40808;DHT22;26523;52.504;13.498;2022-10-16T02:21:54;13.80;99.90
40808;DHT22;26523;52.504;13.498;2022-10-16T02:27:10;13.90;99.90
40808;DHT22;26523;52.504;13.498;2022-10-16T02:29:43;14.00;99.90
40808;DHT22;26523;52.504;13.498;2022-10-16T02:32:15;14.10;99.90
40808;DHT22;26523;52.504;13.498;2022-10-16T02:34:42;14.10;99.90
40808;DHT22;26523;52.504;13.498;2022-10-16T02:37:10;14.20;99.90
40808;DHT22;26523;52.504;13.498;2022-10-16T02:39:36;14.20;99.90
40808;DHT22;26523;52.504;13.498;2022-10-16T02:42:02;14.10;99.90
40808;DHT22;26523;52.504;13.498;2022-10-16T02:44:28;14.10;99.90
40808;DHT22;26523;52.504;13.498;2022-10-16T02:46:54;14.10;99.90
40808;DHT22;26523;52.504;13.498;2022-10-16T02:49:19;14.10;99.90
40808;DHT22;26523;52.504;13.498;2022-10-16T02:51:45;14.10;99.90
40808;DHT22;26523;52.504;13.498;2022-10-16T02:54:10;14.20;99.90
40808;DHT22;26523;52.504;13.498;2022-10-16T02:56:36;14.20;99.90
40808;DHT22;26523;52.504;13.498;2022-10-16T02:59:01;14.20;99.90
40808;DHT22;26523;52.504;13.498;2022-10-16T03:01:28;14.10;99.90
40808;DHT22;26523;52.504;13.498;2022-10-16T03:03:53;14.10;99.90
40808;DHT22;26523;52.504;13.498;2022-10-16T03:06:19;14.10;99.90
40808;DHT22;26523;52.504;13.498;2022-10-16T03:08:45;14.10;99.90
40808;DHT22;26523;52.504;13.498;2022-10-16T03:11:10;14.10;99.90
40808;DHT22;26523;52.504;13.498;2022-10-16T03:13:36;14.00;99.90
40808;DHT22;26523;52.504;13.498;2022-10-16T03:16:01;14.00;99.90
40808;DHT22;26523;52.504;13.498;2022-10-16T03:18:27;14.00;99.90
40808;DHT22;26523;52.504;13.498;2022-10-16T03:20:52;14.00;99.90
40808;DHT22;26523;52.504;13.498;2022-10-16T03:23:18;14.00;99.90
40808;DHT22;26523;52.504;13.498;2022-10-16T03:25:43;13.90;99.90
40808;DHT22;26523;52.504;13.498;2022-10-16T03:28:09;13.90;99.90
40808;DHT22;26523;52.504;13.498;2022-10-16T03:30:35;13.80;99.90
40808;DHT22;26523;52.504;13.498;2022-10-16T03:33:00;13.80;99.90
40808;DHT22;26523;52.504;13.498;2022-10-16T03:35:26;13.80;99.90
40808;DHT22;26523;52.504;13.498;2022-10-16T03:37:51;13.70;99.90
40808;DHT22;26523;52.504;13.498;2022-10-16T03:40:18;13.60;99.90
40808;DHT22;26523;52.504;13.498;2022-10-16T03:42:43;13.60;99.90
40808;DHT22;26523;52.504;13.498;2022-10-16T03:45:10;13.60;99.90
40808;DHT22;26523;52.504;13.498;2022-10-16T03:47:35;13.60;99.90
40808;DHT22;26523;52.504;13.498;2022-10-16T03:50:01;13.60;99.90
40808;DHT22;26523;52.504;13.498;2022-10-16T03:52:27;13.60;99.90
40808;DHT22;26523;52.504;13.498;2022-10-16T03:54:53;13.70;99.90
40808;DHT22;26523;52.504;13.498;2022-10-16T03:57:18;13.60;99.90
40808;DHT22;26523;52.504;13.498;2022-10-16T03:59:46;13.70;99.90
40808;DHT22;26523;52.504;13.498;2022-10-16T04:02:11;13.60;99.90
40808;DHT22;26523;52.504;13.498;2022-10-16T04:04:37;13.60;99.90
40808;DHT22;26523;52.504;13.498;2022-10-16T04:07:02;13.50;99.90
40808;DHT22;26523;52.504;13.498;2022-10-16T04:09:28;13.50;99.90
40808;DHT22;26523;52.504;13.498;2022-10-16T04:11:53;13.50;99.90
40808;DHT22;26523;52.504;13.498;2022-10-16T04:14:19;13.50;99.90
40808;DHT22;26523;52.504;13.498;2022-10-16T04:16:44;13.50;99.90
40808;DHT22;26523;52.504;13.498;2022-10-16T04:19:10;13.50;99.90
40808;DHT22;26523;52.504;13.498;2022-10-16T04:21:36;13.50;99.90
40808;DHT22;26523;52.504;13.498;2022-10-16T04:24:02;13.60;99.90
40808;DHT22;26523;52.504;13.498;2022-10-16T04:26:28;13.60;99.90
40808;DHT22;26523;52.504;13.498;2022-10-16T04:28:54;13.60;99.90
40808;DHT22;26523;52.504;13.498;2022-10-16T04:31:20;13.60;99.90
40808;DHT22;26523;52.504;13.498;2022-10-16T04:33:46;13.50;99.90
40808;DHT22;26523;52.504;13.498;2022-10-16T04:36:12;13.50;99.90
40808;DHT22;26523;52.504;13.498;2022-10-16T04:38:39;13.50;99.90
40808;DHT22;26523;52.504;13.498;2022-10-16T04:41:06;13.40;99.90
40808;DHT22;26523;52.504;13.498;2022-10-16T04:43:32;13.40;99.90
40808;DHT22;26523;52.504;13.498;2022-10-16T04:45:57;13.40;99.90
40808;DHT22;26523;52.504;13.498;2022-10-16T04:48:23;13.40;99.90
40808;DHT22;26523;52.504;13.498;2022-10-16T04:50:49;13.40;99.90
40808;DHT22;26523;52.504;13.498;2022-10-16T04:53:15;13.30;99.90
40808;DHT22;26523;52.504;13.498;2022-10-16T04:55:41;13.20;99.90
40808;DHT22;26523;52.504;13.498;2022-10-16T04:58:07;13.30;99.90
40808;DHT22;26523;52.504;13.498;2022-10-16T05:00:33;13.20;99.90
40808;DHT22;26523;52.504;13.498;2022-10-16T05:02:59;13.20;99.90
40808;DHT22;26523;52.504;13.498;2022-10-16T05:05:26;13.20;99.90
40808;DHT22;26523;52.504;13.498;2022-10-16T05:07:52;13.20;99.90
40808;DHT22;26523;52.504;13.498;2022-10-16T05:10:18;13.20;99.90
40808;DHT22;26523;52.504;13.498;2022-10-16T05:12:43;13.20;99.90
40808;DHT22;26523;52.504;13.498;2022-10-16T05:15:09;13.30;99.90
40808;DHT22;26523;52.504;13.498;2022-10-16T05:17:35;13.20;99.90
40808;DHT22;26523;52.504;13.498;2022-10-16T05:20:01;13.10;99.90
40808;DHT22;26523;52.504;13.498;2022-10-16T05:22:27;13.10;99.90
40808;DHT22;26523;52.504;13.498;2022-10-16T05:24:52;13.10;99.90
40808;DHT22;26523;52.504;13.498;2022-10-16T05:27:18;13.00;99.90
40808;DHT22;26523;52.504;13.498;2022-10-16T05:29:47;13.10;99.90
40808;DHT22;26523;52.504;13.498;2022-10-16T05:32:14;13.10;99.90
40808;DHT22;26523;52.504;13.498;2022-10-16T05:34:40;13.10;99.90
40808;DHT22;26523;52.504;13.498;2022-10-16T05:37:06;13.10;99.90
40808;DHT22;26523;52.504;13.498;2022-10-16T05:39:31;13.00;99.90
40808;DHT22;26523;52.504;13.498;2022-10-16T05:41:57;13.00;99.90
40808;DHT22;26523;52.504;13.498;2022-10-16T05:44:22;13.00;99.90
40808;DHT22;26523;52.504;13.498;2022-10-16T05:46:48;13.00;99.90
40808;DHT22;26523;52.504;13.498;2022-10-16T05:49:13;13.00;99.90
40808;DHT22;26523;52.504;13.498;2022-10-16T05:51:39;13.10;99.90
40808;DHT22;26523;52.504;13.498;2022-10-16T05:54:05;13.10;99.90
40808;DHT22;26523;52.504;13.498;2022-10-16T05:56:30;13.10;99.90
40808;DHT22;26523;52.504;13.498;2022-10-16T05:58:56;13.10;99.90
40808;DHT22;26523;52.504;13.498;2022-10-16T06:01:21;13.20;99.90
40808;DHT22;26523;52.504;13.498;2022-10-16T06:03:50;13.20;99.90
40808;DHT22;26523;52.504;13.498;2022-10-16T06:06:18;13.30;99.90
40808;DHT22;26523;52.504;13.498;2022-10-16T06:08:45;13.40;99.90
40808;DHT22;26523;52.504;13.498;2022-10-16T06:11:19;13.40;99.90
40808;DHT22;26523;52.504;13.498;2022-10-16T06:13:49;13.40;99.90
40808;DHT22;26523;52.504;13.498;2022-10-16T06:16:15;13.40;99.90
40808;DHT22;26523;52.504;13.498;2022-10-16T06:18:41;13.40;99.90
40808;DHT22;26523;52.504;13.498;2022-10-16T06:21:10;13.40;99.90
40808;DHT22;26523;52.504;13.498;2022-10-16T06:23:36;13.50;99.90
40808;DHT22;26523;52.504;13.498;2022-10-16T06:26:10;13.60;99.90
40808;DHT22;26523;52.504;13.498;2022-10-16T06:28:37;13.60;99.90
40808;DHT22;26523;52.504;13.498;2022-10-16T06:31:04;13.70;99.90
40808;DHT22;26523;52.504;13.498;2022-10-16T06:33:30;13.80;99.90
40808;DHT22;26523;52.504;13.498;2022-10-16T06:36:03;13.90;99.90
40808;DHT22;26523;52.504;13.498;2022-10-16T06:38:30;14.00;99.90
40808;DHT22;26523;52.504;13.498;2022-10-16T06:40:56;14.10;99.90
40808;DHT22;26523;52.504;13.498;2022-10-16T06:43:21;14.10;99.90
40808;DHT22;26523;52.504;13.498;2022-10-16T06:45:54;14.20;99.90
40808;DHT22;26523;52.504;13.498;2022-10-16T06:48:20;14.20;99.90
40808;DHT22;26523;52.504;13.498;2022-10-16T06:53:34;14.20;99.90
40808;DHT22;26523;52.504;13.498;2022-10-16T06:56:17;14.30;99.90
40808;DHT22;26523;52.504;13.498;2022-10-16T06:58:44;14.30;99.90
40808;DHT22;26523;52.504;13.498;2022-10-16T07:01:10;14.30;99.90
40808;DHT22;26523;52.504;13.498;2022-10-16T07:03:37;14.30;99.90
40808;DHT22;26523;52.504;13.498;2022-10-16T07:06:05;14.30;99.90
40808;DHT22;26523;52.504;13.498;2022-10-16T07:08:35;14.40;99.90
40808;DHT22;26523;52.504;13.498;2022-10-16T07:11:04;14.50;99.90
40808;DHT22;26523;52.504;13.498;2022-10-16T07:13:31;14.60;99.90
40808;DHT22;26523;52.504;13.498;2022-10-16T07:15:57;14.80;99.90
40808;DHT22;26523;52.504;13.498;2022-10-16T07:18:23;15.10;99.90
40808;DHT22;26523;52.504;13.498;2022-10-16T07:20:52;15.40;99.90
40808;DHT22;26523;52.504;13.498;2022-10-16T07:23:18;15.60;99.90
40808;DHT22;26523;52.504;13.498;2022-10-16T07:25:43;15.80;99.90
40808;DHT22;26523;52.504;13.498;2022-10-16T07:28:09;16.00;99.90
40808;DHT22;26523;52.504;13.498;2022-10-16T07:30:36;16.10;99.90
40808;DHT22;26523;52.504;13.498;2022-10-16T07:33:02;16.10;99.90
40808;DHT22;26523;52.504;13.498;2022-10-16T07:35:28;16.10;99.90
40808;DHT22;26523;52.504;13.498;2022-10-16T07:37:54;16.20;99.90
40808;DHT22;26523;52.504;13.498;2022-10-16T07:40:19;16.30;99.90
40808;DHT22;26523;52.504;13.498;2022-10-16T07:42:45;16.50;99.90
40808;DHT22;26523;52.504;13.498;2022-10-16T07:45:11;16.50;99.90
40808;DHT22;26523;52.504;13.498;2022-10-16T07:47:36;16.70;99.90
40808;DHT22;26523;52.504;13.498;2022-10-16T07:50:02;16.70;99.90
40808;DHT22;26523;52.504;13.498;2022-10-16T07:52:28;16.80;99.90
40808;DHT22;26523;52.504;13.498;2022-10-16T07:54:53;16.80;99.90
40808;DHT22;26523;52.504;13.498;2022-10-16T07:57:19;16.80;99.90
40808;DHT22;26523;52.504;13.498;2022-10-16T07:59:45;16.80;99.90
40808;DHT22;26523;52.504;13.498;2022-10-16T08:02:11;16.70;99.90
40808;DHT22;26523;52.504;13.498;2022-10-16T08:04:37;16.70;99.90
40808;DHT22;26523;52.504;13.498;2022-10-16T08:07:02;16.60;99.90
40808;DHT22;26523;52.504;13.498;2022-10-16T08:09:28;16.70;99.90
40808;DHT22;26523;52.504;13.498;2022-10-16T08:11:54;16.60;99.90
40808;DHT22;26523;52.504;13.498;2022-10-16T08:14:19;16.70;99.90
40808;DHT22;26523;52.504;13.498;2022-10-16T08:16:45;16.70;99.90
40808;DHT22;26523;52.504;13.498;2022-10-16T08:19:10;16.70;99.90
40808;DHT22;26523;52.504;13.498;2022-10-16T08:21:36;16.70;99.90
40808;DHT22;26523;52.504;13.498;2022-10-16T08:24:01;16.80;99.90
40808;DHT22;26523;52.504;13.498;2022-10-16T08:26:27;16.80;99.90
40808;DHT22;26523;52.504;13.498;2022-10-16T08:28:53;16.90;99.90
40808;DHT22;26523;52.504;13.498;2022-10-16T08:31:20;17.00;99.90
40808;DHT22;26523;52.504;13.498;2022-10-16T08:33:45;17.10;99.90
40808;DHT22;26523;52.504;13.498;2022-10-16T08:36:13;17.40;99.90
40808;DHT22;26523;52.504;13.498;2022-10-16T08:38:38;17.40;99.90
40808;DHT22;26523;52.504;13.498;2022-10-16T08:41:28;17.60;99.90
40808;DHT22;26523;52.504;13.498;2022-10-16T08:44:05;17.50;99.90
40808;DHT22;26523;52.504;13.498;2022-10-16T08:46:50;17.60;99.90
40808;DHT22;26523;52.504;13.498;2022-10-16T08:49:18;17.70;99.90
40808;DHT22;26523;52.504;13.498;2022-10-16T08:51:44;17.80;99.90
40808;DHT22;26523;52.504;13.498;2022-10-16T08:54:19;17.70;99.90
40808;DHT22;26523;52.504;13.498;2022-10-16T08:56:46;17.80;99.90
40808;DHT22;26523;52.504;13.498;2022-10-16T08:59:14;17.80;99.90
40808;DHT22;26523;52.504;13.498;2022-10-16T09:01:44;17.80;99.90
40808;DHT22;26523;52.504;13.498;2022-10-16T09:04:39;17.80;99.90
40808;DHT22;26523;52.504;13.498;2022-10-16T09:07:22;17.80;99.90
40808;DHT22;26523;52.504;13.498;2022-10-16T09:09:58;17.70;99.90
40808;DHT22;26523;52.504;13.498;2022-10-16T09:15:55;17.60;99.90
40808;DHT22;26523;52.504;13.498;2022-10-16T09:21:37;18.30;99.90
40808;DHT22;26523;52.504;13.498;2022-10-16T09:26:35;18.60;99.90
40808;DHT22;26523;52.504;13.498;2022-10-16T09:29:01;18.70;99.90
40808;DHT22;26523;52.504;13.498;2022-10-16T09:31:28;18.80;99.90
40808;DHT22;26523;52.504;13.498;2022-10-16T09:34:00;18.80;99.90
40808;DHT22;26523;52.504;13.498;2022-10-16T09:36:42;18.90;99.90
40808;DHT22;26523;52.504;13.498;2022-10-16T09:39:09;18.90;99.90
40808;DHT22;26523;52.504;13.498;2022-10-16T09:41:42;18.90;99.90
40808;DHT22;26523;52.504;13.498;2022-10-16T09:46:48;18.90;99.90
40808;DHT22;26523;52.504;13.498;2022-10-16T09:49:25;18.90;99.90
40808;DHT22;26523;52.504;13.498;2022-10-16T09:52:06;18.90;99.90
40808;DHT22;26523;52.504;13.498;2022-10-16T09:54:34;18.90;99.90
40808;DHT22;26523;52.504;13.498;2022-10-16T09:57:07;18.80;99.90
40808;DHT22;26523;52.504;13.498;2022-10-16T09:59:47;18.80;99.90
40808;DHT22;26523;52.504;13.498;2022-10-16T10:02:14;18.60;99.90
40808;DHT22;26523;52.504;13.498;2022-10-16T10:04:51;18.50;99.90
40808;DHT22;26523;52.504;13.498;2022-10-16T10:07:35;18.40;99.90
40808;DHT22;26523;52.504;13.498;2022-10-16T10:10:05;18.40;99.90
40808;DHT22;26523;52.504;13.498;2022-10-16T10:12:32;18.40;99.90
40808;DHT22;26523;52.504;13.498;2022-10-16T10:15:13;18.30;99.90
40808;DHT22;26523;52.504;13.498;2022-10-16T10:17:50;18.30;99.90
40808;DHT22;26523;52.504;13.498;2022-10-16T10:20:28;18.60;99.90
40808;DHT22;26523;52.504;13.498;2022-10-16T10:22:55;18.90;99.90
40808;DHT22;26523;52.504;13.498;2022-10-16T10:28:30;19.10;99.90
40808;DHT22;26523;52.504;13.498;2022-10-16T10:33:57;19.40;99.90
40808;DHT22;26523;52.504;13.498;2022-10-16T10:36:30;19.50;99.90
40808;DHT22;26523;52.504;13.498;2022-10-16T10:39:02;19.60;99.90
40808;DHT22;26523;52.504;13.498;2022-10-16T10:46:51;19.80;99.90
40808;DHT22;26523;52.504;13.498;2022-10-16T11:05:40;19.40;99.90
40808;DHT22;26523;52.504;13.498;2022-10-16T11:08:33;19.40;99.90
40808;DHT22;26523;52.504;13.498;2022-10-16T11:11:06;19.50;99.90
40808;DHT22;26523;52.504;13.498;2022-10-16T11:13:40;19.50;99.90
40808;DHT22;26523;52.504;13.498;2022-10-16T11:16:21;19.70;99.90
40808;DHT22;26523;52.504;13.498;2022-10-16T11:18:56;19.90;99.90
40808;DHT22;26523;52.504;13.498;2022-10-16T11:21:24;20.10;99.90
40808;DHT22;26523;52.504;13.498;2022-10-16T11:24:09;20.20;99.90
40808;DHT22;26523;52.504;13.498;2022-10-16T11:26:40;20.10;99.90
40808;DHT22;26523;52.504;13.498;2022-10-16T11:29:19;19.90;99.90
40808;DHT22;26523;52.504;13.498;2022-10-16T11:31:50;20.00;99.90
40808;DHT22;26523;52.504;13.498;2022-10-16T11:36:53;20.00;99.90
40808;DHT22;26523;52.504;13.498;2022-10-16T11:39:27;20.00;99.90
40808;DHT22;26523;52.504;13.498;2022-10-16T11:48:08;20.00;99.90
40808;DHT22;26523;52.504;13.498;2022-10-16T11:55:46;19.80;99.90
40808;DHT22;26523;52.504;13.498;2022-10-16T12:04:04;19.50;99.90
40808;DHT22;26523;52.504;13.498;2022-10-16T12:06:36;19.40;99.90
40808;DHT22;26523;52.504;13.498;2022-10-16T12:09:03;19.20;99.90
40808;DHT22;26523;52.504;13.498;2022-10-16T12:14:21;19.00;99.90
40808;DHT22;26523;52.504;13.498;2022-10-16T12:17:00;19.00;99.90
40808;DHT22;26523;52.504;13.498;2022-10-16T12:19:28;18.90;99.90
40808;DHT22;26523;52.504;13.498;2022-10-16T12:22:00;18.90;99.90
40808;DHT22;26523;52.504;13.498;2022-10-16T12:24:44;18.90;99.90
40808;DHT22;26523;52.504;13.498;2022-10-16T12:27:45;18.90;99.90
40808;DHT22;26523;52.504;13.498;2022-10-16T12:30:22;18.90;99.90
40808;DHT22;26523;52.504;13.498;2022-10-16T12:32:53;18.80;99.90
40808;DHT22;26523;52.504;13.498;2022-10-16T12:35:26;18.90;99.90
40808;DHT22;26523;52.504;13.498;2022-10-16T12:37:53;18.90;99.90
40808;DHT22;26523;52.504;13.498;2022-10-16T12:40:32;18.80;99.90
40808;DHT22;26523;52.504;13.498;2022-10-16T12:42:58;18.80;99.90
40808;DHT22;26523;52.504;13.498;2022-10-16T12:45:31;18.90;99.90
40808;DHT22;26523;52.504;13.498;2022-10-16T12:47:59;18.80;99.90
40808;DHT22;26523;52.504;13.498;2022-10-16T12:50:36;18.80;99.90
40808;DHT22;26523;52.504;13.498;2022-10-16T12:53:17;18.80;99.90
40808;DHT22;26523;52.504;13.498;2022-10-16T12:56:34;18.80;99.90
40808;DHT22;26523;52.504;13.498;2022-10-16T12:59:01;18.90;99.90
40808;DHT22;26523;52.504;13.498;2022-10-16T13:02:19;18.90;99.90
40808;DHT22;26523;52.504;13.498;2022-10-16T13:08:00;19.00;99.90
40808;DHT22;26523;52.504;13.498;2022-10-16T13:10:40;19.00;99.90
40808;DHT22;26523;52.504;13.498;2022-10-16T13:18:43;19.10;99.90
40808;DHT22;26523;52.504;13.498;2022-10-16T13:24:19;19.10;99.90
40808;DHT22;26523;52.504;13.498;2022-10-16T13:27:20;19.10;99.90
40808;DHT22;26523;52.504;13.498;2022-10-16T13:30:02;19.20;99.90
40808;DHT22;26523;52.504;13.498;2022-10-16T13:32:34;19.20;99.90
40808;DHT22;26523;52.504;13.498;2022-10-16T13:35:00;19.20;99.90
40808;DHT22;26523;52.504;13.498;2022-10-16T13:37:26;19.20;99.90
40808;DHT22;26523;52.504;13.498;2022-10-16T13:40:13;19.20;99.90
40808;DHT22;26523;52.504;13.498;2022-10-16T13:42:43;19.30;99.90
40808;DHT22;26523;52.504;13.498;2022-10-16T13:45:21;19.20;99.90
40808;DHT22;26523;52.504;13.498;2022-10-16T13:47:47;19.20;99.90
40808;DHT22;26523;52.504;13.498;2022-10-16T13:50:15;19.20;99.90
40808;DHT22;26523;52.504;13.498;2022-10-16T13:52:41;19.20;99.90
40808;DHT22;26523;52.504;13.498;2022-10-16T13:55:13;19.20;99.90
40808;DHT22;26523;52.504;13.498;2022-10-16T13:57:42;19.20;99.90
40808;DHT22;26523;52.504;13.498;2022-10-16T14:00:25;19.20;99.90
40808;DHT22;26523;52.504;13.498;2022-10-16T14:03:07;19.30;99.90
40808;DHT22;26523;52.504;13.498;2022-10-16T14:05:33;19.20;99.90
40808;DHT22;26523;52.504;13.498;2022-10-16T14:08:00;19.20;99.90
40808;DHT22;26523;52.504;13.498;2022-10-16T14:10:29;19.20;99.90
40808;DHT22;26523;52.504;13.498;2022-10-16T14:13:01;19.10;99.90
40808;DHT22;26523;52.504;13.498;2022-10-16T14:15:30;18.90;99.90
40808;DHT22;26523;52.504;13.498;2022-10-16T14:17:56;18.90;99.90
40808;DHT22;26523;52.504;13.498;2022-10-16T14:20:26;18.90;99.90
40808;DHT22;26523;52.504;13.498;2022-10-16T14:23:16;18.90;99.90
40808;DHT22;26523;52.504;13.498;2022-10-16T14:25:44;18.90;99.90
40808;DHT22;26523;52.504;13.498;2022-10-16T14:28:21;18.90;99.90
40808;DHT22;26523;52.504;13.498;2022-10-16T14:30:55;18.80;99.90
40808;DHT22;26523;52.504;13.498;2022-10-16T14:33:33;18.80;99.90
40808;DHT22;26523;52.504;13.498;2022-10-16T14:36:05;18.70;99.90
40808;DHT22;26523;52.504;13.498;2022-10-16T14:38:32;18.70;99.90
40808;DHT22;26523;52.504;13.498;2022-10-16T14:40:58;18.70;99.90
40808;DHT22;26523;52.504;13.498;2022-10-16T14:46:01;18.50;99.90
40808;DHT22;26523;52.504;13.498;2022-10-16T14:48:27;18.60;99.90
40808;DHT22;26523;52.504;13.498;2022-10-16T14:50:53;18.60;99.90
40808;DHT22;26523;52.504;13.498;2022-10-16T14:53:22;18.60;99.90
40808;DHT22;26523;52.504;13.498;2022-10-16T14:55:48;18.60;99.90
40808;DHT22;26523;52.504;13.498;2022-10-16T14:58:16;18.50;99.90
40808;DHT22;26523;52.504;13.498;2022-10-16T15:00:43;18.50;99.90
40808;DHT22;26523;52.504;13.498;2022-10-16T15:03:08;18.40;99.90
40808;DHT22;26523;52.504;13.498;2022-10-16T15:05:34;18.40;99.90
40808;DHT22;26523;52.504;13.498;2022-10-16T15:08:00;18.40;99.90
40808;DHT22;26523;52.504;13.498;2022-10-16T15:10:27;18.30;99.90
40808;DHT22;26523;52.504;13.498;2022-10-16T15:12:54;18.20;99.90
40808;DHT22;26523;52.504;13.498;2022-10-16T15:17:55;18.20;99.90
40808;DHT22;26523;52.504;13.498;2022-10-16T15:20:24;18.10;99.90
40808;DHT22;26523;52.504;13.498;2022-10-16T15:22:50;18.10;99.90
40808;DHT22;26523;52.504;13.498;2022-10-16T15:28:08;17.90;99.90
40808;DHT22;26523;52.504;13.498;2022-10-16T15:30:35;17.90;99.90
40808;DHT22;26523;52.504;13.498;2022-10-16T15:33:01;17.80;99.90
40808;DHT22;26523;52.504;13.498;2022-10-16T15:35:27;17.80;99.90
40808;DHT22;26523;52.504;13.498;2022-10-16T15:37:53;17.70;99.90
40808;DHT22;26523;52.504;13.498;2022-10-16T15:40:20;17.60;99.90
40808;DHT22;26523;52.504;13.498;2022-10-16T15:42:45;17.50;99.90
40808;DHT22;26523;52.504;13.498;2022-10-16T15:45:12;17.30;99.90
40808;DHT22;26523;52.504;13.498;2022-10-16T15:47:38;17.20;99.90
40808;DHT22;26523;52.504;13.498;2022-10-16T15:50:04;17.20;99.90
40808;DHT22;26523;52.504;13.498;2022-10-16T15:52:30;17.20;99.90
40808;DHT22;26523;52.504;13.498;2022-10-16T15:54:57;17.10;99.90
40808;DHT22;26523;52.504;13.498;2022-10-16T15:57:24;17.00;99.90
40808;DHT22;26523;52.504;13.498;2022-10-16T15:59:50;17.00;99.90
40808;DHT22;26523;52.504;13.498;2022-10-16T16:02:16;16.80;99.90
40808;DHT22;26523;52.504;13.498;2022-10-16T16:04:41;16.80;99.90
40808;DHT22;26523;52.504;13.498;2022-10-16T16:07:07;16.70;99.90
40808;DHT22;26523;52.504;13.498;2022-10-16T16:09:33;16.70;99.90
40808;DHT22;26523;52.504;13.498;2022-10-16T16:12:00;16.60;99.90
40808;DHT22;26523;52.504;13.498;2022-10-16T16:14:27;16.50;99.90
40808;DHT22;26523;52.504;13.498;2022-10-16T16:16:56;16.40;99.90
40808;DHT22;26523;52.504;13.498;2022-10-16T16:19:21;16.20;99.90
40808;DHT22;26523;52.504;13.498;2022-10-16T16:21:48;16.10;99.90
40808;DHT22;26523;52.504;13.498;2022-10-16T16:24:14;16.00;99.90
40808;DHT22;26523;52.504;13.498;2022-10-16T16:26:39;15.90;99.90
40808;DHT22;26523;52.504;13.498;2022-10-16T16:29:13;15.80;99.90
40808;DHT22;26523;52.504;13.498;2022-10-16T16:31:39;15.70;99.90
40808;DHT22;26523;52.504;13.498;2022-10-16T16:34:05;15.60;99.90
40808;DHT22;26523;52.504;13.498;2022-10-16T16:36:31;15.50;99.90
40808;DHT22;26523;52.504;13.498;2022-10-16T16:38:57;15.40;99.90
40808;DHT22;26523;52.504;13.498;2022-10-16T16:41:25;15.30;99.90
40808;DHT22;26523;52.504;13.498;2022-10-16T16:43:51;15.30;99.90
40808;DHT22;26523;52.504;13.498;2022-10-16T16:46:17;15.20;99.90
40808;DHT22;26523;52.504;13.498;2022-10-16T16:48:44;15.10;99.90
40808;DHT22;26523;52.504;13.498;2022-10-16T16:51:12;15.00;99.90
40808;DHT22;26523;52.504;13.498;2022-10-16T16:53:45;14.90;99.90
40808;DHT22;26523;52.504;13.498;2022-10-16T16:56:12;14.80;99.90
40808;DHT22;26523;52.504;13.498;2022-10-16T16:58:38;14.70;99.90
40808;DHT22;26523;52.504;13.498;2022-10-16T17:01:04;14.60;99.90
40808;DHT22;26523;52.504;13.498;2022-10-16T17:03:31;14.50;99.90